createdAt,value
2022-08-10T00:01:08.247Z,660.50
2022-08-10T00:06:06.394Z,668.90
2022-08-10T00:11:16.666Z,699.20
2022-08-10T00:16:06.036Z,702.80
2022-08-10T00:21:06.148Z,618.90
2022-08-10T00:26:03.271Z,576.00
2022-08-10T00:31:03.591Z,546.30
2022-08-10T00:36:01.933Z,573.70
2022-08-10T00:41:01.049Z,616.30
2022-08-10T00:46:00.614Z,630.60
2022-08-10T00:50:59.553Z,535.00
2022-08-10T00:57:12.912Z,634.90
2022-08-10T01:00:58.098Z,571.20
2022-08-10T01:05:58.256Z,554.30
2022-08-10T01:10:57.401Z,567.30
2022-08-10T01:15:55.804Z,540.60
2022-08-10T01:20:54.939Z,659.50
2022-08-10T01:26:11.946Z,622.20
2022-08-10T01:30:53.315Z,610.70
2022-08-10T01:35:52.443Z,572.30
2022-08-10T01:40:51.792Z,626.50
2022-08-10T01:45:52.919Z,599.40
2022-08-10T01:50:53.430Z,598.20
2022-08-10T01:55:49.449Z,611.30
2022-08-10T02:00:49.598Z,649.30
2022-08-10T02:05:47.894Z,558.40
2022-08-10T02:10:47.262Z,593.40
2022-08-10T02:16:02.172Z,566.10
2022-08-10T02:20:45.590Z,628.00
2022-08-10T02:25:44.976Z,626.60
2022-08-10T02:30:44.087Z,547.60
2022-08-10T02:35:54.637Z,578.20
2022-08-10T02:42:18.794Z,602.20
2022-08-10T02:45:41.768Z,596.60
2022-08-10T02:50:41.068Z,561.30
2022-08-10T02:55:40.402Z,528.50
2022-08-10T03:00:40.756Z,558.20
2022-08-10T03:05:39.892Z,645.20
2022-08-10T03:10:41.315Z,576.40
2022-08-10T03:15:37.426Z,553.00
2022-08-10T03:20:39.693Z,576.60
2022-08-10T03:25:36.035Z,561.40
2022-08-10T03:30:36.383Z,565.80
2022-08-10T03:35:35.501Z,575.80
2022-08-10T03:40:45.205Z,561.20
2022-08-10T03:45:54.228Z,528.60
2022-08-10T03:50:51.250Z,541.80
2022-08-10T03:56:28.053Z,576.40
2022-08-10T04:00:32.660Z,577.60
2022-08-10T04:05:38.822Z,547.80
2022-08-10T04:10:30.019Z,589.30
2022-08-10T04:15:30.371Z,582.90
2022-08-10T04:20:34.591Z,568.70
2022-08-10T04:25:26.884Z,584.40
2022-08-10T04:30:28.034Z,552.00
2022-08-10T04:35:25.283Z,573.30
2022-08-10T04:40:29.235Z,551.60
2022-08-10T04:45:23.774Z,554.20
2022-08-10T04:50:23.938Z,538.40
2022-08-10T04:55:22.087Z,539.30
2022-08-10T05:00:22.284Z,561.50
2022-08-10T05:05:22.438Z,533.10
2022-08-10T05:10:19.766Z,551.80
2022-08-10T05:15:19.070Z,590.50
2022-08-10T05:20:18.410Z,576.10
2022-08-10T05:25:17.711Z,555.30
2022-08-10T05:30:18.008Z,566.30
2022-08-10T05:35:16.300Z,562.50
2022-08-10T05:40:15.601Z,574.00
2022-08-10T05:45:14.914Z,591.10
2022-08-10T05:50:15.252Z,560.50
2022-08-10T05:55:13.591Z,593.30
2022-08-10T06:00:37.366Z,576.50
2022-08-10T06:05:13.036Z,610.70
2022-08-10T06:10:10.669Z,592.60
2022-08-10T06:15:21.599Z,563.60
2022-08-10T06:20:10.839Z,544.60
2022-08-10T06:26:08.192Z,602.60
2022-08-10T06:30:20.222Z,617.80
2022-08-10T06:35:08.339Z,609.80
2022-08-10T06:40:06.726Z,598.10
2022-08-10T06:45:05.834Z,599.30
2022-08-10T06:50:08.811Z,656.20
2022-08-10T06:55:05.257Z,583.10
2022-08-10T07:00:03.594Z,593.80
2022-08-10T07:05:02.888Z,598.60
2022-08-10T07:10:02.179Z,579.20
2022-08-10T07:15:02.486Z,586.20
2022-08-10T07:20:00.822Z,639.10
2022-08-10T07:25:00.126Z,646.90
2022-08-10T07:29:59.431Z,599.70
2022-08-10T07:34:58.764Z,611.90
2022-08-10T07:40:04.356Z,603.30
2022-08-10T07:44:58.046Z,622.90
2022-08-10T07:49:57.341Z,566.50
2022-08-10T07:54:57.654Z,672.90
2022-08-10T07:59:54.971Z,604.60
2022-08-10T08:04:53.139Z,509.50
2022-08-10T08:09:57.735Z,601.80
2022-08-10T08:14:52.454Z,574.10
2022-08-10T08:19:55.575Z,531.70
2022-08-10T08:24:52.629Z,542.50
2022-08-10T08:29:50.275Z,518.80
2022-08-10T08:34:51.461Z,654.70
2022-08-10T08:39:48.783Z,572.10
2022-08-10T08:44:47.967Z,591.30
2022-08-10T08:50:08.713Z,703.30
2022-08-10T08:54:46.451Z,534.30
2022-08-10T08:59:46.771Z,514.60
2022-08-10T09:04:46.056Z,562.20
2022-08-10T09:09:45.361Z,533.90
2022-08-10T09:14:43.657Z,543.50
2022-08-10T09:19:42.953Z,547.50
2022-08-10T09:24:42.249Z,457.50
2022-08-10T09:29:41.549Z,481.70
2022-08-10T09:36:22.447Z,483.00
2022-08-10T09:40:56.112Z,478.50
2022-08-10T09:44:57.865Z,506.00
2022-08-10T09:49:54.463Z,594.30
2022-08-10T09:54:38.553Z,416.30
2022-08-10T10:00:00.377Z,462.40
2022-08-10T10:04:36.007Z,441.00
2022-08-10T10:09:35.312Z,407.10
2022-08-10T10:14:34.621Z,412.60
2022-08-10T10:19:40.361Z,391.00
2022-08-10T10:24:34.143Z,403.60
2022-08-10T10:29:57.512Z,385.20
2022-08-10T10:34:31.545Z,318.20
2022-08-10T10:39:34.817Z,483.80
2022-08-10T10:44:30.792Z,481.00
2022-08-10T10:49:29.048Z,469.80
2022-08-10T10:54:28.323Z,451.10
2022-08-10T10:59:55.284Z,336.50
2022-08-10T11:04:26.854Z,630.30
2022-08-10T11:10:05.528Z,696.90
2022-08-10T11:14:29.255Z,565.70
2022-08-10T11:19:24.585Z,562.80
2022-08-10T11:24:48.884Z,626.10
2022-08-10T11:29:22.929Z,605.70
2022-08-10T11:34:48.277Z,568.00
2022-08-10T11:39:21.393Z,404.70
2022-08-10T11:44:21.549Z,414.10
2022-08-10T11:49:19.820Z,567.80
2022-08-10T11:54:19.111Z,488.10
2022-08-10T11:59:18.458Z,622.30
2022-08-10T12:04:17.541Z,627.00
2022-08-10T12:10:06.635Z,549.90
2022-08-10T12:14:23.967Z,550.20
2022-08-10T12:19:15.129Z,570.30
2022-08-10T12:24:15.457Z,475.40
2022-08-10T12:29:14.780Z,524.90
2022-08-10T12:34:14.085Z,507.10
2022-08-10T12:39:13.527Z,345.80
2022-08-10T12:44:12.731Z,572.50
2022-08-10T12:49:10.899Z,560.80
2022-08-10T12:54:10.026Z,537.00
2022-08-10T12:59:10.336Z,566.00
2022-08-10T13:04:20.533Z,522.50
2022-08-10T13:09:06.849Z,506.10
2022-08-10T13:14:07.154Z,446.90
2022-08-10T13:19:06.468Z,576.80
2022-08-10T13:24:05.813Z,290.90
2022-08-10T13:29:12.959Z,302.10
2022-08-10T13:34:42.707Z,296.80
2022-08-10T13:39:04.636Z,332.80
2022-08-10T13:44:02.748Z,654.10
2022-08-10T13:49:01.877Z,365.40
2022-08-10T13:54:03.228Z,294.40
2022-08-10T13:59:00.533Z,297.70
2022-08-10T14:03:59.834Z,251.50
2022-08-10T14:08:59.136Z,279.70
2022-08-10T14:13:58.475Z,280.90
2022-08-10T14:18:58.601Z,280.20
2022-08-10T14:23:58.926Z,336.60
2022-08-10T14:28:57.213Z,271.20
2022-08-10T14:33:55.499Z,259.70
2022-08-10T14:38:54.810Z,337.80
2022-08-10T14:43:53.114Z,258.20
2022-08-10T14:48:53.437Z,288.00
2022-08-10T14:53:54.150Z,288.90
2022-08-10T14:59:06.243Z,271.90
2022-08-10T15:03:59.122Z,281.30
2022-08-10T15:08:51.528Z,234.20
2022-08-10T15:14:41.890Z,438.40
2022-08-10T15:18:58.234Z,263.90
2022-08-10T15:24:05.670Z,270.40
2022-08-10T15:29:22.676Z,222.70
2022-08-10T15:33:57.580Z,411.40
2022-08-10T15:38:46.743Z,392.40
2022-08-10T15:43:46.866Z,313.20
2022-08-10T15:48:44.179Z,389.60
2022-08-10T15:53:49.056Z,319.90
2022-08-10T15:58:42.565Z,331.90
2022-08-10T16:03:41.891Z,337.90
2022-08-10T16:08:55.893Z,214.30
2022-08-10T16:13:51.015Z,249.20
2022-08-10T16:18:39.544Z,272.50
2022-08-10T16:23:38.669Z,252.00
2022-08-10T16:28:37.995Z,227.00
2022-08-10T16:33:53.906Z,199.60
2022-08-10T16:38:36.500Z,194.40
2022-08-10T16:43:36.820Z,180.30
2022-08-10T16:48:50.158Z,192.00
2022-08-10T16:53:34.123Z,203.80
2022-08-10T16:58:34.443Z,311.50
2022-08-10T17:04:08.423Z,210.90
2022-08-10T17:08:32.953Z,212.00
2022-08-10T17:13:33.128Z,185.20
2022-08-10T17:18:31.270Z,212.60
2022-08-10T17:23:29.635Z,195.80
2022-08-10T17:28:34.761Z,214.70
2022-08-10T17:33:27.978Z,266.00
2022-08-10T17:38:28.074Z,269.70
2022-08-10T17:43:46.455Z,305.30
2022-08-10T17:48:27.469Z,271.60
2022-08-10T17:53:24.777Z,325.60
2022-08-10T17:58:25.093Z,328.30
2022-08-10T18:03:25.800Z,369.30
2022-08-10T18:08:22.793Z,390.00
2022-08-10T18:13:22.947Z,401.80
2022-08-10T18:18:21.289Z,384.50
2022-08-10T18:23:21.391Z,347.70
2022-08-10T18:28:19.735Z,427.00
2022-08-10T18:33:20.862Z,330.50
2022-08-10T18:38:18.214Z,348.80
2022-08-10T18:44:04.755Z,286.00
2022-08-10T18:48:18.622Z,249.80
2022-08-10T18:53:17.760Z,348.90
2022-08-10T18:58:15.074Z,422.90
2022-08-10T19:03:14.218Z,268.70
2022-08-10T19:08:13.382Z,319.20
2022-08-10T19:13:14.658Z,306.60
2022-08-10T19:18:13.770Z,381.80
2022-08-10T19:23:14.134Z,398.90
2022-08-10T19:28:11.402Z,300.30
2022-08-10T19:33:10.620Z,327.40
2022-08-10T19:38:08.749Z,393.80
2022-08-10T19:43:08.999Z,418.90
2022-08-10T19:48:08.235Z,583.50
2022-08-10T19:53:06.415Z,513.30
2022-08-10T19:58:05.826Z,688.90
2022-08-10T20:03:08.121Z,528.10
2022-08-10T20:08:05.084Z,608.10
2022-08-10T20:13:03.422Z,581.30
2022-08-10T20:18:02.752Z,607.30
2022-08-10T20:23:03.066Z,586.00
2022-08-10T20:28:01.971Z,660.60
2022-08-10T20:33:01.477Z,618.80
2022-08-10T20:38:03.416Z,622.10
2022-08-10T20:42:58.898Z,665.70
2022-08-10T20:47:58.155Z,658.00
2022-08-10T20:52:58.458Z,657.60
2022-08-10T20:57:57.700Z,608.90
2022-08-10T21:02:58.149Z,702.40
2022-08-10T21:08:03.565Z,676.40
2022-08-10T21:12:55.578Z,660.20
2022-08-10T21:17:53.979Z,646.20
2022-08-10T21:22:53.160Z,677.60
2022-08-10T21:27:55.421Z,723.40
2022-08-10T21:32:51.495Z,633.20
2022-08-10T21:37:56.457Z,650.70
2022-08-10T21:42:50.853Z,689.70
2022-08-10T21:48:16.881Z,632.90
2022-08-10T21:52:53.478Z,660.10
2022-08-10T21:57:47.556Z,661.20
2022-08-10T22:02:49.756Z,662.00
2022-08-10T22:07:46.825Z,655.90
2022-08-10T22:12:46.802Z,725.90
2022-08-10T22:18:03.417Z,721.00
2022-08-10T22:22:44.249Z,702.40
2022-08-10T22:27:46.294Z,766.00
2022-08-10T22:32:42.705Z,600.90
2022-08-10T22:37:43.131Z,590.10
2022-08-10T22:42:58.876Z,581.60
2022-08-10T22:47:41.556Z,633.20
2022-08-10T22:53:02.067Z,656.20
2022-08-10T22:57:37.990Z,587.60
2022-08-10T23:02:37.438Z,555.20
2022-08-10T23:07:37.497Z,530.40
2022-08-10T23:12:34.757Z,587.10
2022-08-10T23:18:01.614Z,539.30
2022-08-10T23:22:35.181Z,547.60
2022-08-10T23:27:38.836Z,591.90
2022-08-10T23:32:32.823Z,596.90
2022-08-10T23:37:33.118Z,579.40
2022-08-10T23:42:31.395Z,882.10
2022-08-10T23:47:32.696Z,682.70
2022-08-10T23:52:31.974Z,687.40
2022-08-10T23:57:30.267Z,687.70
